createdAt,value
2019-03-25T00:02:11.982Z,9.00
2019-03-25T00:04:40.451Z,9.00
2019-03-25T00:07:08.974Z,8.90
2019-03-25T00:09:37.435Z,8.90
2019-03-25T00:12:05.879Z,8.90
2019-03-25T00:14:34.334Z,8.90
2019-03-25T00:17:02.855Z,8.90
2019-03-25T00:19:31.309Z,8.80
2019-03-25T00:21:59.750Z,8.80
2019-03-25T00:24:38.193Z,8.80
2019-03-25T00:26:58.368Z,8.80
2019-03-25T00:29:26.817Z,8.80
2019-03-25T00:31:55.276Z,8.80
2019-03-25T00:34:23.705Z,8.70
2019-03-25T00:36:52.437Z,8.70
2019-03-25T00:39:20.955Z,8.70
2019-03-25T00:41:49.398Z,8.60
2019-03-25T00:44:17.860Z,8.60
2019-03-25T00:46:46.372Z,8.60
2019-03-25T00:49:14.842Z,8.60
2019-03-25T00:51:43.316Z,8.60
2019-03-25T00:54:11.732Z,8.60
2019-03-25T00:56:40.192Z,8.60
2019-03-25T00:59:08.638Z,8.60
2019-03-25T01:01:37.062Z,8.60
2019-03-25T01:04:05.609Z,8.60
2019-03-25T01:06:34.402Z,8.60
2019-03-25T01:09:02.844Z,8.50
2019-03-25T01:11:31.310Z,8.50
2019-03-25T01:13:59.747Z,8.50
2019-03-25T01:16:28.237Z,8.50
2019-03-25T01:18:56.704Z,8.40
2019-03-25T01:21:25.509Z,8.40
2019-03-25T01:23:53.991Z,8.40
2019-03-25T01:26:22.424Z,8.30
2019-03-25T01:28:50.861Z,8.30
2019-03-25T01:31:19.331Z,8.30
2019-03-25T01:33:47.771Z,8.30
2019-03-25T01:36:16.226Z,8.30
2019-03-25T01:38:44.676Z,8.30
2019-03-25T01:41:13.124Z,8.30
2019-03-25T01:43:41.547Z,8.30
2019-03-25T01:46:10.038Z,8.30
2019-03-25T01:48:38.539Z,8.30
2019-03-25T01:51:07.001Z,8.30
2019-03-25T01:53:35.446Z,8.20
2019-03-25T01:56:03.886Z,8.20
2019-03-25T01:58:32.327Z,8.00
2019-03-25T02:01:00.774Z,8.00
2019-03-25T02:03:29.204Z,8.00
2019-03-25T02:05:57.651Z,8.00
2019-03-25T02:08:26.086Z,7.90
2019-03-25T02:10:54.530Z,7.90
2019-03-25T02:13:22.975Z,7.80
2019-03-25T02:15:51.427Z,7.70
2019-03-25T02:18:19.858Z,7.70
2019-03-25T02:20:48.342Z,7.60
2019-03-25T02:23:16.780Z,7.50
2019-03-25T02:25:45.213Z,7.50
2019-03-25T02:28:14.658Z,7.50
2019-03-25T02:30:43.419Z,7.40
2019-03-25T02:33:12.196Z,7.40
2019-03-25T02:35:41.004Z,7.30
2019-03-25T02:38:09.872Z,7.30
2019-03-25T02:40:38.295Z,7.30
2019-03-25T02:43:07.312Z,7.20
2019-03-25T02:45:35.747Z,7.10
2019-03-25T02:48:04.204Z,7.00
2019-03-25T02:50:32.648Z,7.00
2019-03-25T02:53:01.084Z,6.90
2019-03-25T02:55:40.831Z,6.90
2019-03-25T02:57:59.682Z,6.90
2019-03-25T03:00:33.600Z,6.90
2019-03-25T03:03:02.035Z,6.90
2019-03-25T03:05:30.496Z,6.80
2019-03-25T03:07:58.953Z,6.80
2019-03-25T03:10:27.390Z,6.80
2019-03-25T03:12:55.863Z,6.80
2019-03-25T03:15:24.665Z,6.70
2019-03-25T03:17:53.145Z,6.70
2019-03-25T03:20:21.923Z,6.60
2019-03-25T03:22:50.350Z,6.60
2019-03-25T03:25:18.763Z,6.50
2019-03-25T03:27:47.196Z,6.50
2019-03-25T03:30:16.039Z,6.50
2019-03-25T03:32:44.483Z,6.50
2019-03-25T03:35:13.341Z,6.40
2019-03-25T03:37:41.787Z,6.40
2019-03-25T03:40:10.321Z,6.40
2019-03-25T03:42:38.760Z,6.40
2019-03-25T03:45:07.633Z,6.30
2019-03-25T03:47:36.105Z,6.30
2019-03-25T03:50:09.287Z,6.20
2019-03-25T03:52:38.397Z,6.10
2019-03-25T03:55:07.592Z,6.00
2019-03-25T03:57:36.707Z,5.90
2019-03-25T04:00:07.260Z,5.90
2019-03-25T04:02:35.707Z,5.80
2019-03-25T04:05:04.992Z,5.70
2019-03-25T04:07:33.433Z,5.60
2019-03-25T04:10:01.931Z,5.50
2019-03-25T04:12:30.381Z,5.40
2019-03-25T04:14:59.267Z,5.30
2019-03-25T04:17:28.002Z,5.10
2019-03-25T04:19:56.458Z,5.00
2019-03-25T04:22:25.291Z,4.90
2019-03-25T04:24:54.046Z,4.90
2019-03-25T04:27:23.616Z,4.80
2019-03-25T04:29:52.359Z,4.80
2019-03-25T04:32:20.840Z,4.90
2019-03-25T04:34:49.262Z,4.90
2019-03-25T04:37:17.722Z,5.00
2019-03-25T04:39:46.163Z,5.00
2019-03-25T04:42:14.620Z,5.00
2019-03-25T04:44:43.040Z,4.90
2019-03-25T04:47:11.558Z,4.80
2019-03-25T04:49:40.016Z,4.70
2019-03-25T04:52:08.505Z,4.70
2019-03-25T04:54:38.481Z,4.80
2019-03-25T04:57:07.259Z,4.80
2019-03-25T04:59:35.677Z,4.90
2019-03-25T05:02:04.183Z,4.90
2019-03-25T05:04:32.625Z,4.80
2019-03-25T05:07:01.382Z,4.80
2019-03-25T05:09:29.825Z,4.80
2019-03-25T05:11:58.261Z,4.70
2019-03-25T05:14:26.752Z,4.70
2019-03-25T05:16:55.505Z,4.70
2019-03-25T05:19:23.967Z,4.70
2019-03-25T05:21:52.398Z,4.70
2019-03-25T05:24:21.168Z,4.70
2019-03-25T05:26:51.196Z,4.60
2019-03-25T05:29:19.782Z,4.60
2019-03-25T05:31:48.261Z,4.60
2019-03-25T05:34:16.768Z,4.60
2019-03-25T05:36:45.219Z,4.60
2019-03-25T05:39:13.677Z,4.60
2019-03-25T05:41:42.465Z,4.60
2019-03-25T05:44:10.937Z,4.70
2019-03-25T05:46:39.377Z,4.70
2019-03-25T05:49:07.882Z,4.70
2019-03-25T05:51:36.693Z,4.80
2019-03-25T05:54:05.481Z,4.80
2019-03-25T05:56:34.266Z,4.80
2019-03-25T05:59:02.728Z,4.90
2019-03-25T06:01:31.343Z,4.90
2019-03-25T06:04:07.948Z,4.90
2019-03-25T06:06:36.388Z,5.00
2019-03-25T06:09:05.808Z,5.10
2019-03-25T06:11:34.313Z,5.20
2019-03-25T06:14:02.760Z,5.40
2019-03-25T06:16:31.196Z,5.50
2019-03-25T06:18:59.628Z,5.60
2019-03-25T06:21:28.125Z,5.60
2019-03-25T06:23:56.578Z,5.70
2019-03-25T06:26:25.004Z,5.80
2019-03-25T06:28:53.511Z,5.80
2019-03-25T06:31:21.949Z,5.80
2019-03-25T06:33:50.386Z,5.90
2019-03-25T06:36:18.805Z,5.80
2019-03-25T06:38:47.269Z,5.90
2019-03-25T06:41:15.696Z,5.90
2019-03-25T06:43:44.598Z,5.90
2019-03-25T06:46:13.021Z,5.90
2019-03-25T06:48:41.460Z,6.00
2019-03-25T06:51:10.217Z,6.00
2019-03-25T06:53:38.729Z,6.10
2019-03-25T06:56:07.422Z,6.10
2019-03-25T06:58:36.189Z,6.10
2019-03-25T07:01:04.700Z,6.20
2019-03-25T07:03:33.467Z,6.40
2019-03-25T07:06:01.973Z,6.60
2019-03-25T07:08:30.449Z,7.00
2019-03-25T07:10:58.892Z,7.30
2019-03-25T07:13:28.849Z,7.50
2019-03-25T07:15:57.681Z,7.40
2019-03-25T07:18:26.136Z,7.30
2019-03-25T07:20:54.605Z,7.20
2019-03-25T07:23:23.121Z,7.40
2019-03-25T07:25:51.915Z,7.50
2019-03-25T07:28:20.335Z,7.50
2019-03-25T07:30:48.793Z,7.40
2019-03-25T07:33:17.237Z,7.40
2019-03-25T07:35:45.948Z,7.40
2019-03-25T07:38:14.562Z,7.60
2019-03-25T07:40:43.027Z,7.70
2019-03-25T07:43:11.502Z,7.60
2019-03-25T07:45:39.975Z,7.50
2019-03-25T07:48:08.423Z,7.40
2019-03-25T07:50:36.862Z,7.40
2019-03-25T07:53:05.440Z,7.30
2019-03-25T07:55:33.896Z,7.40
2019-03-25T07:58:02.319Z,7.50
2019-03-25T08:00:30.863Z,7.50
2019-03-25T08:02:59.305Z,7.40
2019-03-25T08:05:27.782Z,7.30
2019-03-25T08:07:56.217Z,7.30
2019-03-25T08:10:33.433Z,7.40
2019-03-25T08:13:02.438Z,7.40
2019-03-25T08:15:31.187Z,7.30
2019-03-25T08:18:00.192Z,7.30
2019-03-25T08:20:28.644Z,7.30
2019-03-25T08:22:57.081Z,7.40
2019-03-25T08:25:25.862Z,7.60
2019-03-25T08:27:59.808Z,7.60
2019-03-25T08:30:24.661Z,7.40
2019-03-25T08:33:08.240Z,7.30
2019-03-25T08:35:36.717Z,7.30
2019-03-25T08:38:05.163Z,7.10
2019-03-25T08:40:39.565Z,7.10
2019-03-25T08:43:08.077Z,7.20
2019-03-25T08:45:36.545Z,7.20
2019-03-25T08:48:05.441Z,7.20
2019-03-25T08:50:33.878Z,7.30
2019-03-25T08:53:02.322Z,7.30
2019-03-25T08:55:30.773Z,7.30
2019-03-25T08:58:11.195Z,7.40
2019-03-25T09:00:29.637Z,7.60
2019-03-25T09:02:58.358Z,8.00
2019-03-25T09:05:27.146Z,8.10
2019-03-25T09:08:07.697Z,8.20
2019-03-25T09:10:36.125Z,8.40
2019-03-25T09:13:04.975Z,8.50
2019-03-25T09:15:33.426Z,8.40
2019-03-25T09:18:01.944Z,8.20
2019-03-25T09:20:30.367Z,8.20
2019-03-25T09:22:58.806Z,8.00
2019-03-25T09:25:27.238Z,7.90
2019-03-25T09:27:55.763Z,7.90
2019-03-25T09:30:44.735Z,7.90
2019-03-25T09:33:13.193Z,7.90
2019-03-25T09:35:41.681Z,8.00
2019-03-25T09:38:12.136Z,8.10
2019-03-25T09:40:40.626Z,8.30
2019-03-25T09:43:09.138Z,8.60
2019-03-25T09:45:37.616Z,8.40
2019-03-25T09:48:07.229Z,8.20
2019-03-25T09:50:35.707Z,8.20
2019-03-25T09:53:04.841Z,8.20
2019-03-25T09:55:33.297Z,8.30
2019-03-25T09:58:01.767Z,8.20
2019-03-25T10:00:33.569Z,8.10
2019-03-25T10:03:02.420Z,8.10
2019-03-25T10:05:30.927Z,8.00
2019-03-25T10:07:59.362Z,8.40
2019-03-25T10:10:27.783Z,8.70
2019-03-25T10:12:56.979Z,9.20
2019-03-25T10:15:25.465Z,9.50
2019-03-25T10:17:53.942Z,9.80
2019-03-25T10:20:40.641Z,9.90
2019-03-25T10:23:09.468Z,9.60
2019-03-25T10:25:37.926Z,9.70
2019-03-25T10:28:06.375Z,9.50
2019-03-25T10:30:35.210Z,9.90
2019-03-25T10:33:03.658Z,10.60
2019-03-25T10:35:32.165Z,10.70
2019-03-25T10:38:00.604Z,10.30
2019-03-25T10:40:29.058Z,9.90
2019-03-25T10:42:57.511Z,9.50
2019-03-25T10:45:25.942Z,9.30
2019-03-25T10:47:54.378Z,9.20
2019-03-25T10:50:22.834Z,9.40
2019-03-25T10:52:51.286Z,9.80
2019-03-25T10:55:20.051Z,10.20
2019-03-25T10:57:48.888Z,10.90
2019-03-25T11:00:19.380Z,11.10
2019-03-25T11:02:47.867Z,11.20
2019-03-25T11:05:18.678Z,10.70
2019-03-25T11:07:47.126Z,10.00
2019-03-25T11:10:16.036Z,9.80
2019-03-25T11:12:44.485Z,9.70
2019-03-25T11:15:13.963Z,9.70
2019-03-25T11:17:42.403Z,10.00
2019-03-25T11:20:12.069Z,10.90
2019-03-25T11:22:40.527Z,11.60
2019-03-25T11:25:09.895Z,11.30
2019-03-25T11:27:38.333Z,11.10
2019-03-25T11:30:12.239Z,11.50
2019-03-25T11:32:40.753Z,11.80
2019-03-25T11:35:11.550Z,11.50
2019-03-25T11:37:40.013Z,11.10
2019-03-25T11:40:10.713Z,11.20
2019-03-25T11:42:39.214Z,11.40
2019-03-25T11:45:09.987Z,11.50
2019-03-25T11:47:38.818Z,11.40
2019-03-25T11:50:09.806Z,11.40
2019-03-25T11:52:38.242Z,11.30
2019-03-25T11:55:08.138Z,11.30
2019-03-25T11:57:36.559Z,11.60
2019-03-25T12:00:09.085Z,11.50
2019-03-25T12:02:37.523Z,11.50
2019-03-25T12:05:08.516Z,11.40
2019-03-25T12:07:37.013Z,10.70
2019-03-25T12:10:09.054Z,10.30
2019-03-25T12:12:37.509Z,10.40
2019-03-25T12:15:07.301Z,10.70
2019-03-25T12:17:35.738Z,10.70
2019-03-25T12:20:06.127Z,11.00
2019-03-25T12:22:34.579Z,11.20
2019-03-25T12:25:03.039Z,11.20
2019-03-25T12:27:33.751Z,11.10
2019-03-25T12:30:02.358Z,11.00
2019-03-25T12:32:30.808Z,11.10
2019-03-25T12:34:59.273Z,11.20
2019-03-25T12:37:27.724Z,11.40
2019-03-25T12:39:57.135Z,11.80
2019-03-25T12:42:25.863Z,11.90
2019-03-25T12:44:54.343Z,11.80
2019-03-25T12:47:24.025Z,11.80
2019-03-25T12:49:52.827Z,11.90
2019-03-25T12:52:21.277Z,11.80
2019-03-25T12:54:49.755Z,12.20
2019-03-25T12:57:18.566Z,12.40
2019-03-25T12:59:47.030Z,12.60
2019-03-25T13:02:15.471Z,12.00
2019-03-25T13:04:43.901Z,11.70
2019-03-25T13:07:12.330Z,11.70
2019-03-25T13:09:40.831Z,11.80
2019-03-25T13:12:09.249Z,11.80
2019-03-25T13:14:37.679Z,11.70
2019-03-25T13:17:06.108Z,11.50
2019-03-25T13:19:34.558Z,11.80
2019-03-25T13:22:03.008Z,12.00
2019-03-25T13:24:31.462Z,12.00
2019-03-25T13:26:59.978Z,11.60
2019-03-25T13:29:28.438Z,11.40
2019-03-25T13:31:56.901Z,11.10
2019-03-25T13:34:25.309Z,10.80
2019-03-25T13:36:53.775Z,10.40
2019-03-25T13:39:22.209Z,10.30
2019-03-25T13:41:50.649Z,10.00
2019-03-25T13:44:19.102Z,9.50
2019-03-25T13:46:47.845Z,9.30
2019-03-25T13:49:16.269Z,8.80
2019-03-25T13:51:44.741Z,8.40
2019-03-25T13:54:13.151Z,8.10
2019-03-25T13:56:41.595Z,7.90
2019-03-25T13:59:10.580Z,7.80
2019-03-25T14:01:39.060Z,7.90
2019-03-25T14:04:21.488Z,8.50
2019-03-25T14:06:49.935Z,11.30
2019-03-25T14:09:18.358Z,14.70
2019-03-25T14:11:46.792Z,16.00
2019-03-25T14:14:15.224Z,15.90
2019-03-25T14:16:43.668Z,15.80
2019-03-25T14:19:12.096Z,16.40
2019-03-25T14:21:40.557Z,16.30
2019-03-25T14:24:09.381Z,15.50
2019-03-25T14:26:37.816Z,15.10
2019-03-25T14:29:06.245Z,16.40
2019-03-25T14:31:37.620Z,18.30
2019-03-25T14:34:06.029Z,19.90
2019-03-25T14:36:34.473Z,20.50
2019-03-25T14:39:03.016Z,19.50
2019-03-25T14:41:33.863Z,17.90
2019-03-25T14:44:03.631Z,16.60
2019-03-25T14:46:32.146Z,16.40
2019-03-25T14:49:00.868Z,17.20
2019-03-25T14:51:30.172Z,18.20
2019-03-25T14:54:14.081Z,18.30
2019-03-25T14:56:42.502Z,17.90
2019-03-25T14:59:18.669Z,18.10
2019-03-25T15:01:47.116Z,16.90
2019-03-25T15:04:15.773Z,16.00
2019-03-25T15:06:53.023Z,16.50
2019-03-25T15:09:21.465Z,16.00
2019-03-25T15:11:49.868Z,15.60
2019-03-25T15:14:18.333Z,14.20
2019-03-25T15:16:46.769Z,12.80
2019-03-25T15:19:15.220Z,12.00
2019-03-25T15:21:44.808Z,10.90
2019-03-25T15:24:13.251Z,9.80
2019-03-25T15:26:41.676Z,8.80
2019-03-25T15:29:10.142Z,8.50
2019-03-25T15:31:38.571Z,8.20
2019-03-25T15:34:09.154Z,7.80
2019-03-25T15:36:37.832Z,7.50
2019-03-25T15:39:08.623Z,7.40
2019-03-25T15:41:37.065Z,7.50
2019-03-25T15:44:05.509Z,8.20
2019-03-25T15:46:33.940Z,9.20
2019-03-25T15:49:02.364Z,9.90
2019-03-25T15:51:31.137Z,10.20
2019-03-25T15:53:59.571Z,11.10
2019-03-25T15:56:28.036Z,11.90
2019-03-25T15:58:56.492Z,10.50
2019-03-25T16:01:24.921Z,9.30
2019-03-25T16:03:56.267Z,8.70
2019-03-25T16:06:25.809Z,8.40
2019-03-25T16:08:54.265Z,8.10
2019-03-25T16:11:22.720Z,7.90
2019-03-25T16:13:51.176Z,7.90
2019-03-25T16:16:19.611Z,8.00
2019-03-25T16:18:48.129Z,9.00
2019-03-25T16:21:16.572Z,11.10
2019-03-25T16:23:45.366Z,12.20
2019-03-25T16:26:13.772Z,12.30
2019-03-25T16:28:42.208Z,12.00
2019-03-25T16:31:10.658Z,13.20
2019-03-25T16:33:39.111Z,14.00
2019-03-25T16:36:07.546Z,13.90
2019-03-25T16:38:35.988Z,13.40
2019-03-25T16:41:04.433Z,12.20
2019-03-25T16:43:32.881Z,10.80
2019-03-25T16:46:01.376Z,11.30
2019-03-25T16:48:29.835Z,12.70
2019-03-25T16:50:58.268Z,13.50
2019-03-25T16:53:26.927Z,14.10
2019-03-25T16:55:55.412Z,13.70
2019-03-25T16:58:24.365Z,12.60
2019-03-25T17:00:52.809Z,11.40
2019-03-25T17:03:21.307Z,10.50
2019-03-25T17:05:49.735Z,9.80
2019-03-25T17:08:18.203Z,9.10
2019-03-25T17:10:46.977Z,8.50
2019-03-25T17:13:15.449Z,8.10
2019-03-25T17:15:44.241Z,7.90
2019-03-25T17:18:12.683Z,7.70
2019-03-25T17:20:41.133Z,7.60
2019-03-25T17:23:12.148Z,7.50
2019-03-25T17:25:40.926Z,7.40
2019-03-25T17:28:09.765Z,7.30
2019-03-25T17:30:38.497Z,7.20
2019-03-25T17:33:06.928Z,7.10
2019-03-25T17:35:35.442Z,7.00
2019-03-25T17:38:03.879Z,7.00
2019-03-25T17:40:32.472Z,7.00
2019-03-25T17:43:01.170Z,7.00
2019-03-25T17:45:29.637Z,7.00
2019-03-25T17:47:58.077Z,6.90
2019-03-25T17:50:26.558Z,6.90
2019-03-25T17:52:54.966Z,6.80
2019-03-25T17:55:23.439Z,6.90
2019-03-25T17:57:51.868Z,6.90
2019-03-25T18:00:32.116Z,6.90
2019-03-25T18:03:10.558Z,6.90
2019-03-25T18:05:30.879Z,6.90
2019-03-25T18:07:59.559Z,6.90
2019-03-25T18:10:28.010Z,6.90
2019-03-25T18:12:56.450Z,6.90
2019-03-25T18:15:24.887Z,6.80
2019-03-25T18:17:53.353Z,6.80
2019-03-25T18:20:21.790Z,6.90
2019-03-25T18:22:50.224Z,7.00
2019-03-25T18:25:18.687Z,7.00
2019-03-25T18:27:47.198Z,7.00
2019-03-25T18:30:16.359Z,7.10
2019-03-25T18:32:45.452Z,7.10
2019-03-25T18:35:16.953Z,7.10
2019-03-25T18:37:45.381Z,7.10
2019-03-25T18:40:13.830Z,7.10
2019-03-25T18:42:42.265Z,7.00
2019-03-25T18:45:10.810Z,7.10
2019-03-25T18:47:39.232Z,7.00
2019-03-25T18:50:08.020Z,6.80
2019-03-25T18:52:36.456Z,6.60
2019-03-25T18:55:07.164Z,6.50
2019-03-25T18:57:35.872Z,6.50
2019-03-25T19:00:09.418Z,6.40
2019-03-25T19:02:37.904Z,6.30
2019-03-25T19:05:07.693Z,6.10
2019-03-25T19:07:36.501Z,6.00
2019-03-25T19:10:22.614Z,5.90
2019-03-25T19:12:51.444Z,5.70
2019-03-25T19:15:19.889Z,5.50
2019-03-25T19:17:48.594Z,5.40
2019-03-25T19:20:17.056Z,5.30
2019-03-25T19:22:45.533Z,5.30
2019-03-25T19:25:14.057Z,5.20
2019-03-25T19:27:42.558Z,5.20
2019-03-25T19:30:12.911Z,5.10
2019-03-25T19:32:41.369Z,5.00
2019-03-25T19:35:10.208Z,4.80
2019-03-25T19:37:38.677Z,4.70
2019-03-25T19:40:08.212Z,4.60
2019-03-25T19:42:36.703Z,4.60
2019-03-25T19:45:07.822Z,4.60
2019-03-25T19:47:36.369Z,4.50
2019-03-25T19:50:06.965Z,4.50
2019-03-25T19:52:35.423Z,4.50
2019-03-25T19:55:13.218Z,4.60
2019-03-25T19:57:41.676Z,4.50
2019-03-25T20:00:11.255Z,4.60
2019-03-25T20:02:39.743Z,4.70
2019-03-25T20:05:09.229Z,4.80
2019-03-25T20:07:38.066Z,4.90
2019-03-25T20:10:08.792Z,5.00
2019-03-25T20:12:37.375Z,5.00
2019-03-25T20:15:07.748Z,5.00
2019-03-25T20:17:36.314Z,5.00
2019-03-25T20:20:06.542Z,5.10
2019-03-25T20:22:35.010Z,5.10
2019-03-25T20:25:05.331Z,5.10
2019-03-25T20:27:33.827Z,5.20
2019-03-25T20:30:02.272Z,5.20
2019-03-25T20:32:33.201Z,5.10
2019-03-25T20:35:01.696Z,5.20
2019-03-25T20:37:30.672Z,5.20
2019-03-25T20:39:59.114Z,5.20
2019-03-25T20:42:28.064Z,5.00
2019-03-25T20:44:56.560Z,5.00
2019-03-25T20:47:25.056Z,4.90
2019-03-25T20:49:53.505Z,4.80
2019-03-25T20:52:24.368Z,4.90
2019-03-25T20:54:52.140Z,5.00
2019-03-25T20:57:20.612Z,5.00
2019-03-25T20:59:49.138Z,5.00
2019-03-25T21:02:17.617Z,5.00
2019-03-25T21:04:46.114Z,5.10
2019-03-25T21:07:15.134Z,5.00
2019-03-25T21:09:43.671Z,5.00
2019-03-25T21:12:12.162Z,4.90
2019-03-25T21:14:40.662Z,4.80
2019-03-25T21:17:09.181Z,4.80
2019-03-25T21:19:37.707Z,4.70
2019-03-25T21:22:08.789Z,4.60
2019-03-25T21:24:37.328Z,4.60
2019-03-25T21:27:06.283Z,4.50
2019-03-25T21:29:34.845Z,4.50
2019-03-25T21:32:03.339Z,4.40
2019-03-25T21:34:32.221Z,4.40
2019-03-25T21:37:01.259Z,4.40
2019-03-25T21:39:29.716Z,4.40
2019-03-25T21:41:58.229Z,4.40
2019-03-25T21:44:26.685Z,4.40
2019-03-25T21:46:55.147Z,4.40
2019-03-25T21:49:23.694Z,4.40
2019-03-25T21:51:52.857Z,4.40
2019-03-25T21:54:21.831Z,4.30
2019-03-25T21:56:50.310Z,4.30
2019-03-25T21:59:18.739Z,4.30
2019-03-25T22:01:47.283Z,4.30
2019-03-25T22:04:15.749Z,4.40
2019-03-25T22:06:44.190Z,4.40
2019-03-25T22:09:13.255Z,4.40
2019-03-25T22:11:41.707Z,4.40
2019-03-25T22:14:10.148Z,4.40
2019-03-25T22:16:38.587Z,4.40
2019-03-25T22:19:07.070Z,4.40
2019-03-25T22:21:35.521Z,4.40
2019-03-25T22:24:03.965Z,4.40
2019-03-25T22:26:32.403Z,4.40
2019-03-25T22:29:00.841Z,4.40
2019-03-25T22:31:29.467Z,4.30
2019-03-25T22:33:57.925Z,4.40
2019-03-25T22:36:26.354Z,4.40
2019-03-25T22:38:54.794Z,4.50
2019-03-25T22:41:23.224Z,4.50
2019-03-25T22:43:51.672Z,4.60
2019-03-25T22:46:20.104Z,4.60
2019-03-25T22:48:48.551Z,4.60
2019-03-25T22:51:16.961Z,4.60
2019-03-25T22:53:45.418Z,4.60
2019-03-25T22:56:13.852Z,4.60
2019-03-25T22:58:42.326Z,4.60
2019-03-25T23:01:11.019Z,4.60
2019-03-25T23:03:39.853Z,4.50
2019-03-25T23:06:08.594Z,4.40
2019-03-25T23:08:37.038Z,4.40
2019-03-25T23:11:05.471Z,4.30
2019-03-25T23:13:33.917Z,4.30
2019-03-25T23:16:02.426Z,4.20
2019-03-25T23:18:30.861Z,4.00
2019-03-25T23:20:59.323Z,4.00
2019-03-25T23:23:27.844Z,3.90
2019-03-25T23:25:56.294Z,3.90
2019-03-25T23:28:24.756Z,3.80
2019-03-25T23:30:53.188Z,3.70
2019-03-25T23:33:21.605Z,3.70
2019-03-25T23:35:50.086Z,3.60
2019-03-25T23:38:18.519Z,3.60
2019-03-25T23:40:46.969Z,3.60
2019-03-25T23:43:15.384Z,3.60
2019-03-25T23:45:43.832Z,3.70
2019-03-25T23:48:12.274Z,3.70
2019-03-25T23:50:40.698Z,3.70
2019-03-25T23:53:09.118Z,3.70
2019-03-25T23:55:37.572Z,3.60
2019-03-25T23:58:06.321Z,3.50
